Time;durP1;ratioP1;P1;durP2;ratioP2;P2;SDS_P1;SDS_P2;PMS_P1;PMS_P2;Temp;Humidity;BMP_temperature;BMP_pressure;BME280_temperature;BME280_humidity;BME280_pressure;Samples;Min_cycle;Max_cycle;Signal;HPM_P1;HPM_P2
2022/01/11 00:00:29;;;;;;;66.63;30.55;;;0.30;99.90;;;;;;5037394;28;20059;-72
2022/01/11 00:02:55;;;;;;;47.17;28.33;;;0.30;99.90;;;;;;5049991;28;20036;-72
2022/01/11 00:05:26;;;;;;;65.22;30.33;;;0.30;99.90;;;;;;5056997;28;20044;-73
2022/01/11 00:07:53;;;;;;;46.53;28.83;;;0.30;99.90;;;;;;5040990;28;20052;-73
2022/01/11 00:10:29;;;;;;;45.67;28.73;;;0.40;99.90;;;;;;5057578;28;20040;-74
2022/01/11 00:12:56;;;;;;;59.70;29.83;;;0.40;99.90;;;;;;5040266;28;20554;-73
2022/01/11 00:15:22;;;;;;;86.95;32.13;;;0.40;99.90;;;;;;5039454;28;20490;-72
2022/01/11 00:17:48;;;;;;;43.63;27.10;;;0.30;99.90;;;;;;5056693;28;20040;-73
2022/01/11 00:20:16;;;;;;;97.20;32.58;;;0.30;99.90;;;;;;5056591;28;20123;-73
2022/01/11 00:24:26;;;;;;;41.65;27.05;;;0.30;99.90;;;;;;5040466;28;20533;-72
2022/01/11 00:25:31;;;;;;;45.25;28.98;;;0.30;99.90;;;;;;5056235;28;20123;-72
2022/01/11 00:27:57;;;;;;;101.13;30.83;;;0.30;99.90;;;;;;5056624;28;20067;-73
2022/01/11 00:30:23;;;;;;;43.78;27.05;;;0.30;99.90;;;;;;5055716;28;20414;-73
2022/01/11 00:32:53;;;;;;;40.83;26.90;;;0.30;99.90;;;;;;5057157;28;20095;-73
2022/01/11 00:35:27;;;;;;;;;;;0.30;99.90;;;;;;5040193;28;20040;-73
2022/01/11 00:37:53;;;;;;;70.20;27.70;;;0.30;99.90;;;;;;5057079;28;19962;-73
2022/01/11 00:40:19;;;;;;;54.92;27.77;;;0.30;99.90;;;;;;5056460;28;20072;-72
2022/01/11 00:42:44;;;;;;;85.10;29.38;;;0.20;99.90;;;;;;5056553;28;20421;-73
2022/01/11 00:45:11;;;;;;;96.50;31.48;;;0.20;99.90;;;;;;5039701;28;20044;-73
2022/01/11 00:47:37;;;;;;;53.75;28.92;;;0.30;99.90;;;;;;5057098;28;20036;-74
2022/01/11 00:50:05;;;;;;;51.63;28.35;;;0.30;99.90;;;;;;5056519;28;20161;-72
2022/01/11 00:52:30;;;;;;;87.32;29.30;;;0.20;99.90;;;;;;5056499;28;20437;-72
2022/01/11 00:54:56;;;;;;;98.43;33.35;;;0.20;99.90;;;;;;5056108;28;20482;-72
2022/01/11 00:57:22;;;;;;;126.78;33.17;;;0.20;99.90;;;;;;5055987;28;20071;-73
2022/01/11 00:59:48;;;;;;;128.30;32.20;;;0.10;99.90;;;;;;5055833;28;20382;-73
2022/01/11 01:02:14;;;;;;;102.45;31.45;;;0.10;99.90;;;;;;5055630;28;20111;-73
2022/01/11 01:04:40;;;;;;;54.22;29.92;;;0.10;99.90;;;;;;5039596;28;20036;-75
2022/01/11 01:07:05;;;;;;;52.88;30.23;;;0.10;99.90;;;;;;5056261;28;20032;-73
2022/01/11 01:09:41;;;;;;;165.88;37.47;;;0.10;99.90;;;;;;5039791;28;20241;-72
2022/01/11 01:12:08;;;;;;;80.43;31.50;;;0.10;99.90;;;;;;5038713;28;20036;-73
2022/01/11 01:14:33;;;;;;;100.70;33.75;;;0.20;99.90;;;;;;5055991;28;20045;-74
2022/01/11 01:16:59;;;;;;;218.05;38.80;;;0.20;99.90;;;;;;5056324;28;20036;-72
2022/01/11 01:19:27;;;;;;;51.90;29.08;;;0.20;99.90;;;;;;5039017;28;20107;-72
2022/01/11 01:21:54;;;;;;;97.05;32.63;;;0.20;99.90;;;;;;5052341;28;20045;-73
2022/01/11 01:24:21;;;;;;;99.70;32.83;;;0.20;99.90;;;;;;5041531;28;20483;-73
2022/01/11 01:26:47;;;;;;;86.55;33.08;;;0.20;99.90;;;;;;5055256;28;20036;-72
2022/01/11 01:29:14;;;;;;;49.22;28.35;;;0.10;99.90;;;;;;5039628;28;20044;-73
2022/01/11 01:31:40;;;;;;;91.45;30.05;;;0.20;99.90;;;;;;5056000;28;20044;-72
2022/01/11 01:34:06;;;;;;;169.00;36.72;;;0.10;99.90;;;;;;5056100;28;20169;-73
2022/01/11 01:36:32;;;;;;;90.93;33.03;;;0.10;99.90;;;;;;5055600;28;20509;-72
2022/01/11 01:38:58;;;;;;;72.53;30.40;;;0.10;99.90;;;;;;5038989;28;20090;-73
2022/01/11 01:41:24;;;;;;;54.90;29.63;;;0.10;99.90;;;;;;5055448;28;20076;-72
2022/01/11 01:43:56;;;;;;;89.10;32.42;;;0.10;99.90;;;;;;5055447;28;20045;-72
2022/01/11 01:46:22;;;;;;;96.05;31.75;;;0.00;99.90;;;;;;5055540;28;20048;-72
2022/01/11 01:48:48;;;;;;;156.20;36.45;;;0.00;99.90;;;;;;5055596;28;20041;-72
2022/01/11 01:51:15;;;;;;;92.63;32.63;;;0.00;99.90;;;;;;5055389;28;20040;-73
2022/01/11 01:53:47;;;;;;;56.38;31.90;;;0.00;99.90;;;;;;5055585;28;20041;-73
2022/01/11 01:56:13;;;;;;;55.80;29.92;;;-0.10;99.90;;;;;;5038617;28;20044;-73
2022/01/11 01:58:39;;;;;;;58.30;31.63;;;0.00;99.90;;;;;;5039178;28;20037;-73
2022/01/11 02:01:06;;;;;;;57.90;31.98;;;0.00;99.90;;;;;;5038556;28;20052;-74
2022/01/11 02:03:38;;;;;;;83.75;34.17;;;0.00;99.90;;;;;;5055361;28;20090;-73
2022/01/11 02:06:07;;;;;;;78.68;35.55;;;0.00;99.90;;;;;;5038973;28;20047;-72
2022/01/11 02:08:33;;;;;;;114.72;35.10;;;0.00;99.90;;;;;;5055089;28;20040;-74
2022/01/11 02:10:59;;;;;;;71.30;32.85;;;0.00;99.90;;;;;;5039109;28;20052;-74
2022/01/11 02:13:25;;;;;;;84.53;31.10;;;0.00;99.90;;;;;;5051199;28;20556;-72
2022/01/11 02:15:51;;;;;;;80.85;33.00;;;0.00;99.90;;;;;;5030622;28;20029;-73
2022/01/11 02:18:21;;;;;;;209.98;39.88;;;0.00;99.90;;;;;;5055539;28;20050;-73
2022/01/11 02:20:49;;;;;;;;;;;0.00;99.90;;;;;;5055119;28;20040;-73
2022/01/11 02:23:17;;;;;;;95.30;35.45;;;0.00;99.90;;;;;;5055929;28;20010;-73
2022/01/11 02:25:44;;;;;;;144.05;36.97;;;-0.10;99.90;;;;;;5055508;28;20048;-74
2022/01/11 02:28:13;;;;;;;156.68;36.67;;;-0.10;99.90;;;;;;5038760;28;20037;-74
2022/01/11 02:30:39;;;;;;;65.88;32.55;;;-0.10;99.90;;;;;;5055277;28;20048;-74
2022/01/11 02:33:10;;;;;;;149.68;37.72;;;-0.10;99.90;;;;;;5055154;28;20044;-73
2022/01/11 02:35:36;;;;;;;168.45;38.97;;;-0.10;99.90;;;;;;5054600;28;20191;-74
2022/01/11 02:38:01;;;;;;;252.63;42.90;;;-0.10;99.90;;;;;;5055304;28;20544;-73
2022/01/11 02:40:27;;;;;;;90.53;32.25;;;-0.10;99.90;;;;;;5058608;28;20089;-73
2022/01/11 02:42:53;;;;;;;70.68;31.98;;;-0.10;99.90;;;;;;5055321;28;20047;-73
2022/01/11 02:45:20;;;;;;;73.38;31.77;;;-0.10;99.90;;;;;;5039077;28;20124;-72
2022/01/11 02:47:48;;;;;;;65.13;31.23;;;-0.10;99.90;;;;;;5022264;28;20468;-74
2022/01/11 02:50:15;;;;;;;119.68;33.38;;;-0.10;99.90;;;;;;5021891;28;20043;-72
2022/01/11 02:52:41;;;;;;;281.63;44.55;;;0.00;99.90;;;;;;5039092;28;20048;-74
2022/01/11 02:55:12;;;;;;;69.20;31.90;;;0.00;99.90;;;;;;5022547;28;20037;-74
2022/01/11 02:57:39;;;;;;;89.55;33.25;;;0.00;99.90;;;;;;5038566;28;20044;-72
2022/01/11 03:00:11;;;;;;;141.77;36.47;;;-0.10;99.90;;;;;;5038431;28;20498;-71
2022/01/11 03:02:36;;;;;;;185.77;39.35;;;0.00;99.90;;;;;;5038272;28;20508;-71
2022/01/11 03:05:05;;;;;;;67.65;31.85;;;-0.10;99.90;;;;;;5038389;28;20084;-72
2022/01/11 03:07:31;;;;;;;208.27;39.00;;;0.00;99.90;;;;;;5039198;28;20036;-73
2022/01/11 03:10:08;;;;;;;98.85;31.67;;;0.00;99.90;;;;;;5038160;28;20116;-73
2022/01/11 03:12:34;;;;;;;115.07;35.53;;;-0.10;99.90;;;;;;5049636;28;20048;-72
2022/01/11 03:14:59;;;;;;;129.40;34.05;;;-0.10;99.90;;;;;;5054058;28;20037;-72
2022/01/11 03:17:26;;;;;;;66.82;30.33;;;-0.10;99.90;;;;;;5038025;28;20045;-72
2022/01/11 03:19:53;;;;;;;80.57;30.80;;;-0.20;99.90;;;;;;5038600;28;20041;-72
2022/01/11 03:22:19;;;;;;;150.88;35.08;;;-0.20;99.90;;;;;;5021957;28;20395;-73
2022/01/11 03:24:45;;;;;;;152.35;36.92;;;-0.20;99.90;;;;;;5038518;28;20045;-72
2022/01/11 03:27:11;;;;;;;106.38;31.83;;;-0.30;99.90;;;;;;5038056;28;20044;-72
2022/01/11 03:29:40;;;;;;;128.98;33.08;;;-0.30;99.90;;;;;;5047473;28;20127;-71
2022/01/11 03:32:06;;;;;;;65.68;29.65;;;-0.40;99.90;;;;;;5057721;28;20079;-72
2022/01/11 03:34:32;;;;;;;113.30;34.65;;;-0.30;99.90;;;;;;5057773;28;20514;-71
2022/01/11 03:36:58;;;;;;;89.85;30.52;;;-0.40;99.90;;;;;;5041445;28;20076;-72
2022/01/11 03:39:25;;;;;;;77.75;30.92;;;-0.40;99.90;;;;;;5041167;28;20131;-71
2022/01/11 03:41:51;;;;;;;100.18;33.72;;;-0.40;99.90;;;;;;5054285;28;20075;-72
2022/01/11 03:44:17;;;;;;;133.88;37.00;;;-0.40;99.90;;;;;;5038026;28;20040;-72
2022/01/11 03:46:44;;;;;;;146.68;35.17;;;-0.40;99.90;;;;;;5021087;28;20049;-73
2022/01/11 03:49:10;;;;;;;87.65;31.27;;;-0.40;99.90;;;;;;5021202;28;20041;-72
2022/01/11 03:51:38;;;;;;;101.60;33.85;;;-0.40;99.90;;;;;;5037120;28;20045;-72
2022/01/11 03:54:11;;;;;;;105.10;34.63;;;-0.40;99.90;;;;;;5037534;28;20091;-72
2022/01/11 03:56:37;;;;;;;81.20;32.63;;;-0.40;99.90;;;;;;5037459;28;20037;-72
2022/01/11 03:59:06;;;;;;;94.55;32.45;;;-0.40;99.90;;;;;;5037196;28;20421;-72
2022/01/11 04:01:39;;;;;;;191.37;39.27;;;-0.40;99.90;;;;;;5021323;28;20048;-72
2022/01/11 04:04:06;;;;;;;78.90;31.98;;;-0.30;99.90;;;;;;5037753;28;20275;-72
2022/01/11 04:06:32;;;;;;;183.13;40.70;;;-0.40;99.90;;;;;;5037627;28;20041;-71
2022/01/11 04:08:57;;;;;;;69.88;33.10;;;-0.30;99.90;;;;;;5040607;28;20055;-71
2022/01/11 04:11:23;;;;;;;75.00;32.05;;;-0.30;99.90;;;;;;5057163;28;20044;-73
2022/01/11 04:13:50;;;;;;;102.72;34.65;;;-0.30;99.90;;;;;;5057270;28;20169;-73
2022/01/11 04:16:16;;;;;;;96.93;33.30;;;-0.30;99.90;;;;;;5057028;28;20052;-73
2022/01/11 04:18:41;;;;;;;86.88;33.85;;;-0.30;99.90;;;;;;5057172;28;20467;-71
2022/01/11 04:21:08;;;;;;;87.38;33.63;;;-0.30;99.90;;;;;;5057321;28;20094;-71
2022/01/11 04:23:34;;;;;;;74.68;32.55;;;-0.30;99.90;;;;;;5057223;28;20478;-72
2022/01/11 04:26:00;;;;;;;87.07;33.65;;;-0.20;99.90;;;;;;5056749;28;20085;-73
2022/01/11 04:28:27;;;;;;;102.95;34.95;;;-0.20;99.90;;;;;;5056617;28;20048;-72
2022/01/11 04:30:59;;;;;;;172.77;40.95;;;-0.20;99.90;;;;;;5040450;28;20051;-71
2022/01/11 04:33:27;;;;;;;109.80;37.85;;;-0.20;99.90;;;;;;5056729;28;20052;-71
2022/01/11 04:35:53;;;;;;;91.78;36.58;;;-0.20;99.90;;;;;;5056557;28;20040;-73
2022/01/11 04:38:22;;;;;;;78.32;36.22;;;-0.20;99.90;;;;;;5039980;28;20394;-71
2022/01/11 04:40:48;;;;;;;176.27;41.33;;;-0.20;99.90;;;;;;5052781;28;20049;-73
2022/01/11 04:43:14;;;;;;;136.93;40.33;;;-0.20;99.90;;;;;;5037105;28;20041;-71
2022/01/11 04:45:40;;;;;;;74.45;34.85;;;-0.20;99.90;;;;;;5036605;28;20386;-71
2022/01/11 04:48:06;;;;;;;136.27;40.95;;;-0.20;99.90;;;;;;5037090;28;20542;-72
2022/01/11 04:50:32;;;;;;;84.30;35.75;;;-0.10;99.90;;;;;;5036373;28;20102;-73
2022/01/11 04:52:58;;;;;;;88.47;35.97;;;-0.20;99.90;;;;;;5036630;28;20047;-71
2022/01/11 04:55:24;;;;;;;89.53;37.17;;;-0.10;99.90;;;;;;5019454;28;20044;-72
2022/01/11 04:57:49;;;;;;;120.55;39.67;;;-0.10;99.90;;;;;;5037255;28;20047;-73
2022/01/11 05:00:18;;;;;;;83.63;35.33;;;-0.10;99.90;;;;;;5036482;28;20075;-72
2022/01/11 05:02:44;;;;;;;167.07;41.35;;;-0.10;99.90;;;;;;5048605;28;20084;-73
2022/01/11 05:05:10;;;;;;;132.80;40.00;;;-0.10;99.90;;;;;;5055718;28;20037;-72
2022/01/11 05:07:36;;;;;;;106.03;38.50;;;-0.10;99.90;;;;;;5056049;28;20041;-73
2022/01/11 05:10:04;;;;;;;86.93;38.30;;;-0.10;99.90;;;;;;5055907;28;20093;-71
2022/01/11 05:12:30;;;;;;;145.07;43.22;;;-0.10;99.90;;;;;;5056348;28;20383;-72
2022/01/11 05:14:56;;;;;;;133.98;44.88;;;-0.10;99.90;;;;;;5056037;28;20143;-72
2022/01/11 05:17:22;;;;;;;196.00;48.63;;;-0.10;99.90;;;;;;5056205;28;20495;-72
2022/01/11 05:19:47;;;;;;;137.13;42.30;;;-0.10;99.90;;;;;;5056015;28;20040;-72
2022/01/11 05:22:13;;;;;;;112.40;41.28;;;-0.10;99.90;;;;;;5039101;28;20394;-72
2022/01/11 05:24:39;;;;;;;136.40;43.45;;;-0.10;99.90;;;;;;5055457;28;20071;-73
2022/01/11 05:27:05;;;;;;;153.68;47.13;;;-0.10;99.90;;;;;;5055540;28;20040;-73
2022/01/11 05:29:31;;;;;;;124.07;42.60;;;0.00;99.90;;;;;;5055879;28;20470;-72
2022/01/11 05:31:58;;;;;;;160.18;47.53;;;-0.10;99.90;;;;;;5055959;28;20037;-71
2022/01/11 05:34:25;;;;;;;125.15;43.60;;;0.00;99.90;;;;;;5055420;28;20467;-71
2022/01/11 05:36:51;;;;;;;168.95;46.88;;;0.00;99.90;;;;;;5055667;28;20502;-73
2022/01/11 05:39:17;;;;;;;131.68;45.75;;;0.00;99.90;;;;;;5038751;28;20036;-72
2022/01/11 05:41:42;;;;;;;113.13;43.42;;;0.00;99.90;;;;;;5055770;28;20052;-72
2022/01/11 05:44:08;;;;;;;124.70;44.80;;;0.00;99.90;;;;;;5039162;28;20044;-72
2022/01/11 05:46:34;;;;;;;179.43;47.75;;;0.00;99.90;;;;;;5056077;28;20044;-74
2022/01/11 05:48:59;;;;;;;164.75;48.40;;;0.00;99.90;;;;;;5055846;28;20036;-74
2022/01/11 05:51:26;;;;;;;141.07;46.53;;;0.00;99.90;;;;;;5055193;28;20360;-72
2022/01/11 05:53:52;;;;;;;127.22;45.40;;;0.00;99.90;;;;;;5051777;28;20110;-73
2022/01/11 05:56:18;;;;;;;168.35;46.75;;;0.00;99.90;;;;;;5035465;28;20040;-72
2022/01/11 05:58:44;;;;;;;198.30;48.80;;;0.00;99.90;;;;;;5036108;28;20055;-72
2022/01/11 06:01:09;;;;;;;118.00;44.13;;;0.00;99.90;;;;;;5055162;28;20049;-71
2022/01/11 06:03:35;;;;;;;159.02;45.72;;;0.00;99.90;;;;;;5038923;28;20162;-72
2022/01/11 06:06:01;;;;;;;214.90;49.33;;;0.00;99.90;;;;;;5055483;28;20048;-73
2022/01/11 06:08:26;;;;;;;128.38;43.50;;;0.00;99.90;;;;;;5055188;28;20037;-71
2022/01/11 06:10:52;;;;;;;232.10;48.85;;;0.00;99.90;;;;;;5055674;28;20477;-72
2022/01/11 06:13:18;;;;;;;243.43;51.42;;;0.00;99.90;;;;;;5056546;28;20077;-71
2022/01/11 06:15:43;;;;;;;247.15;51.50;;;0.00;99.90;;;;;;5059367;28;20086;-71
2022/01/11 06:18:09;;;;;;;105.97;43.33;;;0.00;99.90;;;;;;5059632;28;20079;-72
2022/01/11 06:20:34;;;;;;;139.75;44.72;;;0.00;99.90;;;;;;5042754;28;20080;-72
2022/01/11 06:23:00;;;;;;;165.52;47.50;;;0.00;99.90;;;;;;5058831;28;20071;-73
2022/01/11 06:25:26;;;;;;;121.93;44.72;;;0.00;99.90;;;;;;5042974;28;20043;-72
2022/01/11 06:27:51;;;;;;;139.55;48.00;;;-0.10;99.90;;;;;;5059596;28;20493;-71
2022/01/11 06:30:18;;;;;;;149.63;48.85;;;0.00;99.90;;;;;;5059265;28;20036;-71
2022/01/11 06:32:45;;;;;;;111.82;44.08;;;0.00;99.90;;;;;;5022793;28;20169;-73
2022/01/11 06:35:15;;;;;;;123.22;44.85;;;0.00;99.90;;;;;;5038996;28;20120;-73
2022/01/11 06:37:41;;;;;;;125.75;44.53;;;0.00;99.90;;;;;;5038841;28;20472;-71
2022/01/11 06:40:08;;;;;;;125.57;46.13;;;0.00;99.90;;;;;;5039375;28;20037;-71
2022/01/11 06:42:34;;;;;;;118.03;43.78;;;0.00;99.90;;;;;;5055826;28;20091;-72
2022/01/11 06:45:00;;;;;;;116.18;43.53;;;-0.10;99.90;;;;;;5039184;28;20048;-73
2022/01/11 06:47:26;;;;;;;112.18;42.63;;;-0.10;99.90;;;;;;5039081;28;20032;-72
2022/01/11 06:49:51;;;;;;;103.03;41.47;;;-0.10;99.90;;;;;;5038771;28;20088;-73
2022/01/11 06:52:17;;;;;;;100.28;40.05;;;-0.10;99.90;;;;;;5055633;28;20040;-73
2022/01/11 06:54:43;;;;;;;100.38;41.03;;;0.00;99.90;;;;;;5047776;28;20044;-73
2022/01/11 06:57:09;;;;;;;94.43;39.35;;;0.00;99.90;;;;;;5022923;28;20360;-72
2022/01/11 06:59:36;;;;;;;94.78;37.65;;;-0.10;99.90;;;;;;5038739;28;20471;-74
2022/01/11 07:02:06;;;;;;;97.10;38.03;;;0.00;99.90;;;;;;5020828;28;20124;-73
2022/01/11 07:04:33;;;;;;;90.45;37.22;;;-0.10;99.90;;;;;;5018841;28;20057;-71
2022/01/11 07:06:58;;;;;;;86.18;38.65;;;-0.10;99.90;;;;;;5002113;28;20052;-72
2022/01/11 07:09:24;;;;;;;90.03;35.78;;;-0.10;99.90;;;;;;5019333;28;20135;-72
2022/01/11 07:11:50;;;;;;;78.25;33.95;;;-0.10;99.90;;;;;;5002564;28;20049;-74
2022/01/11 07:14:16;;;;;;;74.82;33.75;;;-0.10;99.90;;;;;;5018758;28;20132;-73
2022/01/11 07:16:43;;;;;;;84.88;35.90;;;-0.10;99.90;;;;;;5002280;28;20057;-75
2022/01/11 07:19:09;;;;;;;68.07;33.25;;;-0.10;99.90;;;;;;5018132;28;20388;-73
2022/01/11 07:21:35;;;;;;;74.97;32.45;;;-0.10;99.90;;;;;;5030774;28;20487;-73
2022/01/11 07:24:02;;;;;;;76.50;31.77;;;-0.10;99.90;;;;;;5022613;28;20052;-73
2022/01/11 07:26:28;;;;;;;67.38;30.83;;;-0.10;99.90;;;;;;5021674;28;20079;-73
2022/01/11 07:28:53;;;;;;;69.40;30.88;;;-0.20;99.90;;;;;;5021735;28;20041;-74
2022/01/11 07:31:19;;;;;;;67.43;29.00;;;-0.10;99.90;;;;;;5021793;28;20040;-73
2022/01/11 07:33:45;;;;;;;67.22;29.20;;;-0.20;99.90;;;;;;5038088;28;20041;-72
2022/01/11 07:36:11;;;;;;;62.05;28.02;;;-0.20;99.90;;;;;;5020991;28;20045;-73
2022/01/11 07:38:36;;;;;;;60.75;28.25;;;-0.20;99.90;;;;;;5021597;28;20081;-74
2022/01/11 07:41:02;;;;;;;58.75;27.25;;;-0.20;99.90;;;;;;5037534;28;20041;-73
2022/01/11 07:43:27;;;;;;;61.78;27.90;;;-0.20;99.90;;;;;;5038160;28;20162;-74
2022/01/11 07:45:53;;;;;;;58.03;26.27;;;-0.20;99.90;;;;;;5021541;28;20285;-74
2022/01/11 07:48:19;;;;;;;59.70;27.05;;;-0.20;99.90;;;;;;5037994;28;20472;-74
2022/01/11 07:50:45;;;;;;;60.58;26.98;;;-0.20;99.90;;;;;;5020981;28;20110;-73
2022/01/11 07:53:10;;;;;;;60.08;27.65;;;-0.20;99.90;;;;;;5021921;28;20132;-74
2022/01/11 07:55:38;;;;;;;70.90;28.23;;;-0.20;99.90;;;;;;5037799;28;20044;-74
2022/01/11 07:58:03;;;;;;;63.75;29.90;;;-0.20;99.90;;;;;;5021063;28;20083;-73
2022/01/11 08:00:31;;;;;;;65.10;29.13;;;-0.20;99.90;;;;;;5042607;28;20087;-73
2022/01/11 08:02:56;;;;;;;58.95;28.33;;;-0.20;99.90;;;;;;5040983;28;20049;-73
2022/01/11 08:05:22;;;;;;;65.32;30.13;;;-0.20;99.90;;;;;;5040572;28;20055;-74
2022/01/11 08:07:48;;;;;;;60.42;27.52;;;-0.20;99.90;;;;;;5057753;28;20040;-76
2022/01/11 08:10:18;;;;;;;62.55;29.48;;;-0.20;99.90;;;;;;5053901;28;20488;-75
2022/01/11 08:12:44;;;;;;;75.10;32.95;;;-0.20;99.90;;;;;;5037812;28;20490;-73
2022/01/11 08:15:10;;;;;;;68.90;31.23;;;-0.20;99.90;;;;;;5020691;28;20478;-74
2022/01/11 08:17:36;;;;;;;66.38;28.55;;;-0.10;99.90;;;;;;5028757;28;20398;-73
2022/01/11 08:20:03;;;;;;;68.10;29.90;;;-0.20;99.90;;;;;;5056828;28;20525;-76
2022/01/11 08:22:29;;;;;;;65.25;28.20;;;-0.10;99.90;;;;;;5057439;28;20036;-72
2022/01/11 08:24:55;;;;;;;67.10;30.77;;;-0.10;99.90;;;;;;5057558;28;20051;-74
2022/01/11 08:27:22;;;;;;;57.65;28.98;;;-0.10;99.90;;;;;;5053535;28;20076;-73
2022/01/11 08:29:49;;;;;;;57.40;27.95;;;-0.10;99.90;;;;;;5037067;28;20067;-74
2022/01/11 08:32:14;;;;;;;68.13;30.15;;;0.00;99.90;;;;;;5020439;28;20036;-74
2022/01/11 08:34:41;;;;;;;60.17;27.83;;;0.00;99.90;;;;;;5044366;28;20116;-74
2022/01/11 08:37:08;;;;;;;57.90;26.90;;;0.00;99.90;;;;;;5055757;28;20493;-73
2022/01/11 08:39:34;;;;;;;62.00;27.70;;;0.00;99.90;;;;;;5040732;28;20129;-74
2022/01/11 08:42:00;;;;;;;63.08;30.35;;;0.10;99.90;;;;;;5055755;28;20093;-74
2022/01/11 08:44:27;;;;;;;56.80;27.67;;;0.00;99.90;;;;;;5039887;28;20052;-73
2022/01/11 08:46:54;;;;;;;50.63;26.08;;;0.10;99.90;;;;;;5039915;28;20459;-73
2022/01/11 08:49:19;;;;;;;51.47;25.23;;;0.10;99.90;;;;;;5056348;28;20395;-73
2022/01/11 08:51:45;;;;;;;56.78;26.02;;;0.10;99.90;;;;;;5040187;28;20513;-73
2022/01/11 08:54:13;;;;;;;57.72;26.10;;;0.20;99.90;;;;;;5039918;28;20047;-72
2022/01/11 08:56:40;;;;;;;53.53;25.05;;;0.20;99.90;;;;;;5056502;28;20372;-74
2022/01/11 08:59:07;;;;;;;51.78;25.77;;;0.30;99.90;;;;;;5056434;28;20501;-74
2022/01/11 09:01:34;;;;;;;45.38;24.27;;;0.30;99.90;;;;;;5042271;28;20089;-76
2022/01/11 09:04:01;;;;;;;47.80;24.30;;;0.40;99.90;;;;;;4992429;28;20137;-73
2022/01/11 09:06:27;;;;;;;49.03;23.73;;;0.40;99.90;;;;;;4960163;28;20077;-74
2022/01/11 09:08:53;;;;;;;52.58;24.73;;;0.40;99.90;;;;;;4993151;28;20444;-84
2022/01/11 09:11:18;;;;;;;47.00;24.63;;;0.50;99.90;;;;;;4992831;28;20432;-74
2022/01/11 09:13:46;;;;;;;51.20;24.05;;;0.50;99.90;;;;;;4992846;28;20136;-75
2022/01/11 09:16:13;;;;;;;47.83;22.73;;;0.50;99.90;;;;;;4992157;28;20046;-76
2022/01/11 09:18:39;;;;;;;46.78;23.70;;;0.50;99.90;;;;;;4992567;28;20093;-74
2022/01/11 09:21:05;;;;;;;43.80;22.52;;;0.50;99.90;;;;;;4976267;28;20472;-73
2022/01/11 09:23:31;;;;;;;45.05;22.98;;;0.50;99.90;;;;;;4976394;28;20145;-73
2022/01/11 09:25:58;;;;;;;45.53;23.13;;;0.60;99.90;;;;;;4992531;28;20046;-74
2022/01/11 09:28:24;;;;;;;47.85;23.52;;;0.60;99.90;;;;;;4960226;28;20050;-73
2022/01/11 09:30:50;;;;;;;44.50;23.75;;;0.70;99.90;;;;;;4992139;28;20046;-74
2022/01/11 09:33:17;;;;;;;45.75;23.17;;;0.70;99.90;;;;;;4959972;28;20463;-75
2022/01/11 09:35:43;;;;;;;43.92;22.48;;;0.70;99.90;;;;;;4991498;28;20074;-74
2022/01/11 09:38:09;;;;;;;41.70;21.70;;;0.80;99.90;;;;;;4991954;28;20046;-73
2022/01/11 09:40:35;;;;;;;46.60;22.67;;;0.80;99.90;;;;;;4966119;28;20061;-74
2022/01/11 09:43:00;;;;;;;42.35;22.02;;;0.80;99.90;;;;;;5016003;28;20068;-74
2022/01/11 09:45:26;;;;;;;45.35;22.70;;;0.80;99.90;;;;;;5015785;28;20447;-73
2022/01/11 09:47:52;;;;;;;47.55;24.10;;;0.80;99.90;;;;;;5016188;28;20049;-73
2022/01/11 09:50:18;;;;;;;49.53;24.38;;;0.80;99.90;;;;;;5016282;28;20044;-75
2022/01/11 09:52:44;;;;;;;41.13;22.55;;;0.90;99.90;;;;;;5016355;28;20076;-74
2022/01/11 09:55:13;;;;;;;39.97;21.77;;;0.90;99.90;;;;;;5015756;28;20128;-74
2022/01/11 09:57:40;;;;;;;39.20;21.52;;;0.90;99.90;;;;;;5016042;28;20072;-74
2022/01/11 10:00:09;;;;;;;41.28;21.52;;;1.00;99.90;;;;;;5016938;28;20483;-75
2022/01/11 10:02:34;;;;;;;38.97;21.13;;;1.00;99.90;;;;;;5035958;28;20049;-74
2022/01/11 10:05:05;;;;;;;40.45;20.80;;;1.00;99.90;;;;;;5047779;28;20119;-73
2022/01/11 10:07:33;;;;;;;42.67;20.40;;;1.00;99.90;;;;;;5055664;28;20071;-75
2022/01/11 10:09:59;;;;;;;38.47;20.23;;;1.10;99.90;;;;;;5039044;28;20036;-73
2022/01/11 10:12:26;;;;;;;39.08;20.83;;;1.10;99.90;;;;;;5038483;28;20395;-71
2022/01/11 10:14:55;;;;;;;38.10;21.15;;;1.10;99.90;;;;;;5039482;28;20044;-73
2022/01/11 10:17:29;;;;;;;43.38;21.42;;;1.20;99.90;;;;;;5055555;28;20095;-76
2022/01/11 10:20:09;;;;;;;45.60;21.38;;;1.20;99.90;;;;;;5038660;28;20085;-74
2022/01/11 10:22:48;;;;;;;41.80;21.55;;;1.30;99.90;;;;;;5055204;28;20123;-72
2022/01/11 10:25:14;;;;;;;;;;;1.30;99.90;;;;;;5039292;28;20048;-73
2022/01/11 10:27:40;;;;;;;38.25;20.92;;;1.30;99.90;;;;;;5055632;28;19916;-73
2022/01/11 10:30:16;;;;;;;43.13;21.85;;;1.40;99.90;;;;;;5038651;28;20033;-73
2022/01/11 10:32:48;;;;;;;39.97;20.70;;;1.50;99.90;;;;;;5038393;28;20037;-75
2022/01/11 10:35:48;;;;;;;40.38;20.23;;;1.50;99.90;;;;;;5038269;28;20039;-75
2022/01/11 10:38:27;;;;;;;43.42;20.65;;;1.60;99.90;;;;;;5002463;28;20127;-73
2022/01/11 10:40:53;;;;;;;47.05;21.65;;;1.60;99.90;;;;;;5055430;28;20044;-73
2022/01/11 10:43:21;;;;;;;41.00;20.70;;;1.60;99.90;;;;;;5054963;28;20431;-75
2022/01/11 10:45:53;;;;;;;40.40;21.90;;;1.50;99.90;;;;;;5054848;28;20094;-73
2022/01/11 10:48:21;;;;;;;39.60;20.80;;;1.60;99.90;;;;;;5035474;28;20443;-73
2022/01/11 10:50:49;;;;;;;43.97;21.60;;;1.60;99.90;;;;;;5051757;28;20049;-75
2022/01/11 10:53:24;;;;;;;40.22;20.63;;;1.60;99.90;;;;;;5035525;28;20087;-75
2022/01/11 10:55:52;;;;;;;39.53;20.85;;;1.70;99.90;;;;;;5051343;28;20072;-73
2022/01/11 10:58:19;;;;;;;42.20;22.00;;;1.70;99.90;;;;;;5034764;28;20502;-73
2022/01/11 11:00:50;;;;;;;40.33;20.83;;;1.70;99.90;;;;;;5043131;28;20364;-73
2022/01/11 11:03:27;;;;;;;40.78;19.73;;;1.80;99.90;;;;;;5058888;28;20044;-72
2022/01/11 11:05:58;;;;;;;36.58;19.95;;;2.00;99.90;;;;;;5058742;28;20127;-72
2022/01/11 11:08:39;;;;;;;36.75;19.63;;;2.10;99.90;;;;;;5041892;28;20072;-72
2022/01/11 11:11:08;;;;;;;38.38;19.52;;;2.10;99.90;;;;;;5058027;28;20047;-72
2022/01/11 11:13:37;;;;;;;42.63;20.25;;;2.10;99.90;;;;;;5041566;28;20072;-73
2022/01/11 11:16:17;;;;;;;40.50;19.50;;;2.10;99.90;;;;;;5058270;28;20123;-73
2022/01/11 11:18:54;;;;;;;41.15;19.65;;;2.20;99.90;;;;;;5041049;28;20048;-73
2022/01/11 11:21:35;;;;;;;39.67;19.55;;;2.20;99.90;;;;;;5056321;28;20045;-72
2022/01/11 11:24:10;;;;;;;39.65;19.60;;;2.30;99.90;;;;;;5058904;28;20037;-72
2022/01/11 11:26:49;;;;;;;41.22;19.98;;;2.40;99.90;;;;;;5058430;28;20101;-72
2022/01/11 11:29:17;;;;;;;41.67;20.10;;;2.50;99.90;;;;;;5057147;28;20387;-72
2022/01/11 11:31:43;;;;;;;41.03;19.92;;;2.70;99.90;;;;;;5057768;28;20379;-72
2022/01/11 11:34:09;;;;;;;46.30;20.73;;;3.10;99.90;;;;;;5057416;28;20032;-72
2022/01/11 11:36:37;;;;;;;42.28;19.70;;;3.60;99.90;;;;;;5040163;28;20037;-80
2022/01/11 11:39:14;;;;;;;40.78;20.05;;;3.80;99.90;;;;;;5057100;28;20383;-72
2022/01/11 11:41:44;;;;;;;42.25;19.95;;;3.90;99.90;;;;;;5056800;28;20047;-74
2022/01/11 11:44:14;;;;;;;41.08;19.67;;;4.00;99.90;;;;;;5053545;28;20047;-73
2022/01/11 11:46:49;;;;;;;38.25;18.10;;;4.00;99.90;;;;;;5020781;28;20131;-71
2022/01/11 11:49:17;;;;;;;37.78;17.38;;;3.80;99.90;;;;;;5050674;28;20060;-72
2022/01/11 11:51:44;;;;;;;38.70;18.92;;;3.50;99.90;;;;;;5055767;28;20045;-74
2022/01/11 11:54:14;;;;;;;36.25;18.27;;;3.30;99.90;;;;;;5056966;28;20506;-73
2022/01/11 11:56:43;;;;;;;;;;;3.20;99.90;;;;;;5057058;28;20125;-72
2022/01/11 11:59:09;;;;;;;40.78;19.60;;;3.40;99.90;;;;;;5056658;28;19916;-73
2022/01/11 12:01:44;;;;;;;41.00;19.17;;;3.70;99.90;;;;;;5056402;28;20076;-73
2022/01/11 12:04:19;;;;;;;38.15;17.98;;;4.10;99.90;;;;;;5039908;28;20037;-72
2022/01/11 12:06:46;;;;;;;35.60;17.00;;;4.40;99.90;;;;;;5056274;28;20559;-71
2022/01/11 12:09:20;;;;;;;37.13;17.52;;;4.30;99.90;;;;;;5056284;28;20040;-72
2022/01/11 12:11:49;;;;;;;35.10;16.83;;;4.10;99.90;;;;;;5039975;28;20044;-72
2022/01/11 12:14:30;;;;;;;40.78;19.15;;;4.00;99.90;;;;;;5052828;28;20490;-73
2022/01/11 12:16:57;;;;;;;36.00;17.70;;;4.20;99.90;;;;;;5036037;28;20140;-72
2022/01/11 12:19:43;;;;;;;35.42;17.58;;;4.20;99.90;;;;;;5030978;28;20539;-71
2022/01/11 12:22:09;;;;;;;36.22;17.10;;;4.40;99.90;;;;;;5043319;28;20471;-72
2022/01/11 12:24:38;;;;;;;35.95;17.02;;;4.70;99.90;;;;;;5019909;28;20067;-72
2022/01/11 12:27:04;;;;;;;33.40;17.17;;;4.80;99.90;;;;;;5036085;28;20498;-74
2022/01/11 12:29:30;;;;;;;36.45;17.45;;;5.10;99.90;;;;;;5044918;28;20279;-74
2022/01/11 12:32:03;;;;;;;35.67;16.85;;;5.00;99.90;;;;;;5055887;28;20047;-73